»·PEaware :: N210AR KEMT-KCMA

N210AR :: KEMT-KCMA

FLIGHT INFORMATION

Flight Status: Arrived
Operator: Privately registered:
United States
More flights under this callsign
Pilot: Max S. (16657)
Aircraft: CESSNA 172 SKYHAWK
(C172)
More flights by this aircraft type
Origin: KEMT El Monte
United States
Destination: KCMA Camarillo
United States
More flights between these airports :: More routes between these airports
Route: +
File this flight plan on PilotEdge
Remarks:
Altitude:
(Current/Filed)
4,500ft
Speed:
(Current/Filed)
100kts
Departed: 15-Sep-20 08:53 AM
Arrived: 15-Sep-20 09:27 AM
Distance/Time
Traveled:
53nm/0:33
Distance/Time
To Go:
Arrived

Flight Plot

Page will automatically refresh every two minutes.


Map Options




Map Legend


Flown Route
Filed Route
Departure Airport
Arrival Airport
Navaid (VOR, NDB)
Fix

Horizontal Profiles

Position Reports

Time Latitude Longitude Heading Altitude Ground
Speed
15-Sep-20 08:30 34.084182 -118.034003 27 294ft 0kts
15-Sep-20 08:31 34.084182 -118.034003 27 294ft 0kts
15-Sep-20 08:32 34.084182 -118.034003 27 294ft 0kts
15-Sep-20 08:33 34.084182 -118.034003 27 294ft 0kts
15-Sep-20 08:34 34.084182 -118.034003 27 294ft 0kts
15-Sep-20 08:35 34.084183 -118.034003 27 294ft 0kts
15-Sep-20 08:36 34.084183 -118.034003 27 294ft 0kts
15-Sep-20 08:37 34.084183 -118.034003 27 294ft 0kts
15-Sep-20 08:38 34.084183 -118.034003 27 294ft 0kts
15-Sep-20 08:39 34.084182 -118.034003 27 294ft 0kts
15-Sep-20 08:40 34.084182 -118.034003 27 294ft 0kts
15-Sep-20 08:41 34.084182 -118.034003 27 294ft 0kts
15-Sep-20 08:42 34.084182 -118.034003 27 294ft 0kts
15-Sep-20 08:43 34.084182 -118.034003 27 294ft 0kts
15-Sep-20 08:44 34.084182 -118.034003 27 294ft 0kts
15-Sep-20 08:45 34.084182 -118.034003 27 294ft 0kts
15-Sep-20 08:46 34.084182 -118.034003 27 294ft 0kts
15-Sep-20 08:47 34.084182 -118.034003 27 294ft 0kts
15-Sep-20 08:48 34.084429 -118.034278 298 293ft 8kts
15-Sep-20 08:49 34.087241 -118.033503 26 296ft 17kts
15-Sep-20 08:50 34.090686 -118.031584 321 300ft 0kts
15-Sep-20 08:51 34.090687 -118.031586 317 300ft 0kts
15-Sep-20 08:52 34.087283 -118.034067 204 296ft 58kts
15-Sep-20 08:53 34.077673 -118.052110 289 958ft 86kts
15-Sep-20 08:54 34.082404 -118.080040 299 1772ft 87kts
15-Sep-20 08:55 34.093239 -118.103456 302 2593ft 77kts
15-Sep-20 08:56 34.104800 -118.126560 304 3246ft 85kts
15-Sep-20 08:57 34.107822 -118.154453 267 3904ft 88kts
15-Sep-20 08:58 34.122564 -118.169802 54 3537ft 98kts
15-Sep-20 08:59 34.114144 -118.144932 92 3432ft 77kts
15-Sep-20 09:00 34.102930 -118.154569 261 4082ft 73kts
15-Sep-20 09:01 34.114551 -118.180068 287 4452ft 104kts
15-Sep-20 09:02 34.119174 -118.215198 274 4394ft 120kts
15-Sep-20 09:03 34.122617 -118.255910 276 4291ft 119kts
15-Sep-20 09:04 34.127493 -118.293641 282 4382ft 111kts
15-Sep-20 09:05 34.133881 -118.330975 280 4383ft 113kts
15-Sep-20 09:06 34.139819 -118.368746 281 4380ft 114kts
15-Sep-20 09:07 34.145617 -118.406732 281 4368ft 115kts
15-Sep-20 09:09 34.150958 -118.444807 277 4358ft 115kts
15-Sep-20 09:10 34.153022 -118.483494 273 4337ft 115kts
15-Sep-20 09:11 34.156799 -118.522000 277 4317ft 116kts
15-Sep-20 09:12 34.159087 -118.560736 280 4282ft 117kts
15-Sep-20 09:13 34.163478 -118.598197 280 4372ft 112kts
15-Sep-20 09:14 34.170179 -118.635633 281 4371ft 114kts
15-Sep-20 09:15 34.172498 -118.659321 277 4368ft 114kts
15-Sep-20 09:16 34.177295 -118.694969 279 4322ft 117kts
15-Sep-20 09:17 34.183443 -118.733896 281 4247ft 118kts
15-Sep-20 09:18 34.189365 -118.772915 278 4182ft 118kts
15-Sep-20 09:19 34.197363 -118.811948 287 4044ft 121kts
15-Sep-20 09:20 34.201623 -118.851658 279 4166ft 103kts
15-Sep-20 09:21 34.204319 -118.889051 277 4405ft 121kts
15-Sep-20 09:22 34.207077 -118.931508 274 4494ft 128kts
15-Sep-20 09:23 34.212636 -118.971837 285 3401ft 121kts
15-Sep-20 09:24 34.219963 -119.009762 278 2378ft 111kts
15-Sep-20 09:25 34.213060 -119.046935 268 1057ft 116kts
15-Sep-20 09:25 34.213411 -119.076278 272 266ft 88kts
15-Sep-20 09:26 34.212909 -119.090834 210 73ft 0kts
15-Sep-20 09:28 34.212909 -119.090834 210 73ft 0kts
15-Sep-20 09:28 34.212689 -119.090944 187 73ft 9kts
15-Sep-20 09:29 34.210537 -119.089637 272 72ft 2kts

Navigation Log

Ident Type
Flight plan parsing failed, navigation log unavailable